• Join FlightAware (Why Join?)
  • Login
  • US Flag 
12:37PM EDT


 

Airport Tracker/Info


-or-


 

Live Flight TrackerFlight Track Log ✈ N797SK ✈ 15-May-2012 ✈ KDEN - KJAC

Flight Track Log - Related Links

Times and Time Zones

All times are in EDT time to prevent confusion due to time zone crossing. See the N797SK flight status page for this flight to view local times or setup timezone preferences in your user account.

Time Position Orientation Groundspeed Altitude Reporting Facility
EDT Latitude Longitude Course Direction KTS MPH feet Rate Location/Type
05:47PM 39.8333 -104.7333 331° Northwest 195 224 6,300  Level Denver TRACON
05:51PM 40.0667 -104.9000 357° North 314 361 14,700 2,160 Climbing Denver TRACON
05:52PM 40.1961 -104.9100 347° North 348 400 18,000 2,100 Climbing Denver Center
05:53PM 40.2903 -104.9378 347° North 348 400 19,800 1,740 Climbing Denver Center
05:54PM 40.3844 -104.9658 348° North 348 400 21,500 1,680 Climbing Denver Center
05:55PM 40.4850 -104.9936 349° North 360 414 23,200 1,740 Climbing Denver Center
05:56PM 40.5917 -105.0214 347° North 377 434 25,000 1,500 Climbing Denver Center
05:57PM 40.6858 -105.0494 340° North 382 440 26,200 1,380 Climbing Denver Center
05:58PM 40.7886 -105.0992 319° Northwest 388 447 27,800 1,500 Climbing Denver Center
05:59PM 40.8708 -105.1936 320° Northwest 382 440 29,200 1,080 Climbing Denver Center
06:00PM 40.9594 -105.2911 319° Northwest 403 464 30,000 360 Climbing Denver Center
06:01PM 41.0481 -105.3942 319° Northwest 417 480 30,000  Level Denver Center
06:02PM 41.1472 -105.5083 321° Northwest 424 488 30,000  Level Denver Center
06:03PM 41.2397 -105.6092 318° Northwest 430 495 30,000  Level Denver Center
06:04PM 41.3281 -105.7158 308° West 430 495 30,000  Level Denver Center
06:05PM 41.3953 -105.8286 309° West 430 495 30,000  Level Denver Center
06:06PM 41.4667 -105.9469 307° West 424 488 30,000  Level Denver Center
06:07PM 41.5422 -106.0822 309° West 424 488 30,000  Level Denver Center
06:08PM 41.6156 -106.2014 306° West 419 482 30,000  Level Denver Center
06:09PM 41.6764 -106.3122 308° West 414 476 30,000  Level Denver Center
06:10PM 41.7472 -106.4344 308° West 414 476 30,000  Level Denver Center
06:11PM 41.8222 -106.5656 308° West 412 474 30,000  Level Denver Center
06:12PM 41.8931 -106.6883 306° West 417 480 30,000  Level Denver Center
06:13PM 41.9331 -106.7611 307° West 414 476 30,000  Level Salt Lake Center
06:14PM 42.0003 -106.8808 307° West 417 480 30,000  Level Salt Lake Center
06:15PM 42.0794 -107.0239 307° West 424 488 30,000  Level Salt Lake Center
06:16PM 42.1694 -107.1853 307° West 423 487 30,000  Level Salt Lake Center
06:17PM 42.2364 -107.3067 307° West 423 487 30,000  Level Salt Lake Center
06:18PM 42.3156 -107.4500 307° West 426 490 30,000  Level Salt Lake Center
06:19PM 42.3833 -107.5733 307° West 427 491 30,000  Level Salt Lake Center
06:20PM 42.4514 -107.6972 306° West 428 493 30,000  Level Salt Lake Center
06:21PM 42.5300 -107.8419 306° West 428 493 30,000  Level Salt Lake Center
06:22PM 42.5972 -107.9672 306° West 430 495 30,000  Level Salt Lake Center
06:23PM 42.6758 -108.1131 306° West 430 495 30,000  Level Salt Lake Center
06:24PM 42.7433 -108.2386 306° West 430 495 30,000  Level Salt Lake Center
06:25PM 42.8219 -108.3858 306° West 431 496 30,000  Level Salt Lake Center
06:26PM 42.8889 -108.5125 306° West 431 496 30,000  Level Salt Lake Center
06:27PM 42.9664 -108.6589 306° West 433 498 30,000  Level Salt Lake Center
06:28PM 43.0331 -108.7853 305° West 430 495 30,000 -660 Level Salt Lake Center
06:29PM 43.1072 -108.9283 306° West 418 481 28,700 -1,500 Descending Salt Lake Center
06:31PM 43.1656 -109.0392 306° West 382 440 27,000 -1,800 Descending Salt Lake Center
06:32PM 43.2369 -109.1756 306° West 390 449 25,000 -1,800 Descending Salt Lake Center
06:33PM 43.3000 -109.2967 306° West 401 461 23,300 -1,740 Descending Salt Lake Center
06:34PM 43.3644 -109.4169 305° West 406 467 21,500 -1,620 Descending Salt Lake Center
06:35PM 43.4369 -109.5619 305° West 409 471 20,000 -780 Descending Salt Lake Center
06:36PM 43.4975 -109.6814 305° West 401 461 20,000 -180 Level Salt Lake Center
06:37PM 43.5656 -109.8153 306° West 373 429 19,700 -780 Descending Salt Lake Center
06:38PM 43.6144 -109.9100 305° West 360 414 18,400 -1,380 Descending Salt Lake Center
06:39PM 43.6828 -110.0461 305° West 360 414 16,900 -1,440 Descending Salt Lake Center
06:40PM 43.7383 -110.1569 305° West 356 410 15,500 -1,380 Descending Salt Lake Center
06:41PM 43.7936 -110.2656 267° West 350 403 14,100 -960 Descending Salt Lake Center
06:42PM 43.7886 -110.3856 260° West 323 372 13,600 -1,380 Descending Salt Lake Center
06:43PM 43.7750 -110.4956 255° West 297 342 11,300 -2,040 Descending Salt Lake Center
06:44PM 43.7558 -110.5978 255° West 283 326 9,400 -1,860 Descending Salt Lake Center